createdAt,value
2023-05-15T00:02:23.299Z,6.03
2023-05-15T00:04:51.354Z,7.57
2023-05-15T00:07:19.217Z,5.90
2023-05-15T00:09:47.000Z,6.00
2023-05-15T00:12:16.076Z,6.60
2023-05-15T00:14:43.824Z,6.10
2023-05-15T00:17:12.490Z,6.67
2023-05-15T00:19:40.245Z,6.30
2023-05-15T00:22:07.969Z,6.57
2023-05-15T00:24:35.805Z,7.70
2023-05-15T00:27:04.307Z,6.53
2023-05-15T00:29:33.326Z,6.20
2023-05-15T00:32:01.094Z,7.20
2023-05-15T00:34:29.184Z,6.47
2023-05-15T00:36:56.933Z,6.77
2023-05-15T00:39:24.628Z,6.60
2023-05-15T00:41:52.978Z,7.20
2023-05-15T00:44:21.955Z,7.07
2023-05-15T00:46:52.775Z,9.17
2023-05-15T00:49:23.474Z,6.40
2023-05-15T00:51:54.610Z,6.33
2023-05-15T00:54:22.336Z,6.80
2023-05-15T00:56:51.821Z,6.13
2023-05-15T00:59:20.319Z,6.83
2023-05-15T01:01:48.093Z,7.47
2023-05-15T01:04:17.342Z,6.87
2023-05-15T01:06:45.095Z,7.17
2023-05-15T01:09:15.178Z,6.77
2023-05-15T01:11:43.617Z,6.07
2023-05-15T01:14:11.332Z,6.77
2023-05-15T01:16:39.239Z,6.80
2023-05-15T01:19:07.041Z,5.87
2023-05-15T01:22:10.372Z,6.60
2023-05-15T01:25:04.677Z,7.97
2023-05-15T01:27:37.981Z,5.93
2023-05-15T01:30:11.788Z,7.10
2023-05-15T01:32:44.242Z,6.40
2023-05-15T01:35:17.245Z,6.27
2023-05-15T01:37:49.924Z,6.30
2023-05-15T01:40:19.942Z,6.53
2023-05-15T01:42:55.696Z,6.77
2023-05-15T01:45:25.859Z,7.33
2023-05-15T01:47:56.841Z,6.70
2023-05-15T01:50:25.897Z,7.40
2023-05-15T01:52:57.594Z,6.73
2023-05-15T01:55:26.705Z,6.70
2023-05-15T01:57:57.518Z,6.23
2023-05-15T02:00:26.358Z,7.27
2023-05-15T02:02:54.678Z,7.40
2023-05-15T02:05:24.141Z,6.27
2023-05-15T02:07:52.768Z,6.63
2023-05-15T02:10:20.972Z,7.27
2023-05-15T02:12:50.333Z,6.20
2023-05-15T02:15:21.659Z,6.50
2023-05-15T02:17:49.444Z,6.83
2023-05-15T02:20:17.616Z,6.70
2023-05-15T02:22:45.343Z,6.80
2023-05-15T02:25:13.076Z,6.90
2023-05-15T02:27:48.959Z,6.60
2023-05-15T02:30:31.509Z,6.87
2023-05-15T02:33:08.701Z,6.90
2023-05-15T02:35:43.007Z,7.80
2023-05-15T02:38:16.900Z,7.20
2023-05-15T02:40:46.699Z,6.40
2023-05-15T02:43:14.991Z,6.90
2023-05-15T02:45:45.623Z,7.67
2023-05-15T02:48:14.327Z,8.13
2023-05-15T02:50:42.272Z,7.90
2023-05-15T02:53:10.393Z,6.97
2023-05-15T02:55:39.463Z,7.63
2023-05-15T02:58:07.232Z,8.20
2023-05-15T03:00:35.015Z,8.30
2023-05-15T03:03:04.249Z,6.87
2023-05-15T03:05:32.062Z,6.97
2023-05-15T03:08:01.040Z,7.77
2023-05-15T03:10:28.807Z,7.00
2023-05-15T03:12:58.928Z,7.33
2023-05-15T03:15:27.122Z,8.00
2023-05-15T03:17:55.015Z,7.30
2023-05-15T03:20:24.111Z,6.77
2023-05-15T03:22:51.809Z,6.60
2023-05-15T03:25:19.723Z,7.33
2023-05-15T03:27:47.426Z,7.27
2023-05-15T03:30:15.229Z,7.27
2023-05-15T03:32:42.979Z,6.93
2023-05-15T03:35:11.534Z,6.60
2023-05-15T03:37:40.679Z,7.20
2023-05-15T03:40:09.692Z,7.33
2023-05-15T03:42:37.531Z,8.43
2023-05-15T03:45:05.995Z,9.80
2023-05-15T03:47:33.717Z,8.30
2023-05-15T03:50:01.445Z,7.73
2023-05-15T03:52:29.282Z,8.37
2023-05-15T03:54:58.373Z,7.00
2023-05-15T03:57:26.269Z,8.47
2023-05-15T03:59:53.987Z,8.03
2023-05-15T04:02:21.831Z,8.43
2023-05-15T04:04:49.711Z,6.83
2023-05-15T04:07:17.452Z,7.67
2023-05-15T04:09:45.157Z,7.70
2023-05-15T04:12:14.416Z,8.57
2023-05-15T04:14:42.187Z,7.20
2023-05-15T04:17:09.954Z,7.57
2023-05-15T04:19:38.883Z,7.40
2023-05-15T04:22:07.550Z,7.77
2023-05-15T04:24:35.298Z,8.50
2023-05-15T04:27:03.049Z,6.90
2023-05-15T04:29:32.237Z,7.47
2023-05-15T04:32:00.142Z,7.33
2023-05-15T04:34:29.390Z,7.60
2023-05-15T04:36:57.130Z,8.23
2023-05-15T04:39:24.905Z,7.47
2023-05-15T04:41:52.616Z,7.83
2023-05-15T04:44:20.401Z,7.90
2023-05-15T04:46:49.431Z,7.57
2023-05-15T04:49:17.179Z,8.10
2023-05-15T04:51:44.964Z,6.90
2023-05-15T04:54:12.681Z,6.10
2023-05-15T04:56:40.409Z,8.33
2023-05-15T04:59:08.504Z,8.32
2023-05-15T05:01:37.254Z,7.40
2023-05-15T05:04:06.643Z,7.00
2023-05-15T05:06:34.436Z,6.93
2023-05-15T05:09:02.155Z,7.60
2023-05-15T05:11:30.011Z,9.20
2023-05-15T05:13:57.729Z,7.20
2023-05-15T05:16:25.509Z,8.73
2023-05-15T05:18:53.275Z,9.30
2023-05-15T05:21:22.351Z,7.30
2023-05-15T05:23:50.051Z,7.50
2023-05-15T05:26:17.779Z,7.93
2023-05-15T05:28:45.758Z,7.97
2023-05-15T05:31:13.541Z,10.20
2023-05-15T05:33:41.500Z,8.37
2023-05-15T05:36:09.857Z,7.53
2023-05-15T05:38:39.015Z,7.90
2023-05-15T05:41:06.868Z,7.60
2023-05-15T05:43:34.628Z,8.10
2023-05-15T05:46:03.052Z,6.90
2023-05-15T05:48:30.976Z,7.57
2023-05-15T05:50:59.073Z,7.37
2023-05-15T05:53:26.924Z,7.53
2023-05-15T05:55:57.096Z,8.23
2023-05-15T05:58:26.228Z,7.13
2023-05-15T06:00:54.582Z,7.67
2023-05-15T06:03:22.790Z,7.00
2023-05-15T06:05:51.014Z,6.53
2023-05-15T06:08:19.611Z,7.93
2023-05-15T06:10:47.384Z,7.00
2023-05-15T06:13:16.493Z,6.80
2023-05-15T06:15:45.665Z,6.57
2023-05-15T06:18:13.464Z,6.80
2023-05-15T06:20:42.636Z,6.47
2023-05-15T06:23:10.402Z,7.50
2023-05-15T06:25:40.173Z,7.20
2023-05-15T06:28:07.958Z,6.73
2023-05-15T06:30:37.126Z,7.63
2023-05-15T06:33:05.101Z,7.43
2023-05-15T06:35:32.899Z,6.50
2023-05-15T06:38:00.737Z,7.13
2023-05-15T06:40:28.758Z,7.40
2023-05-15T06:42:56.509Z,8.00
2023-05-15T06:45:24.543Z,7.40
2023-05-15T06:47:53.759Z,7.17
2023-05-15T06:50:21.675Z,7.77
2023-05-15T06:52:49.460Z,7.83
2023-05-15T06:55:17.224Z,7.07
2023-05-15T06:57:45.012Z,7.60
2023-05-15T07:00:14.125Z,8.17
2023-05-15T07:02:43.076Z,7.50
2023-05-15T07:05:12.662Z,7.73
2023-05-15T07:07:40.999Z,7.67
2023-05-15T07:10:10.178Z,7.00
2023-05-15T07:12:37.923Z,7.93
2023-05-15T07:15:06.708Z,8.10
2023-05-15T07:17:35.012Z,8.10
2023-05-15T07:20:04.079Z,7.30
2023-05-15T07:22:38.516Z,7.37
2023-05-15T07:25:09.882Z,7.43
2023-05-15T07:27:37.710Z,7.80
2023-05-15T07:30:06.589Z,6.90
2023-05-15T07:32:34.415Z,7.67
2023-05-15T07:35:04.305Z,8.00
2023-05-15T07:37:33.450Z,6.70
2023-05-15T07:40:01.357Z,8.30
2023-05-15T07:42:29.165Z,7.43
2023-05-15T07:44:56.977Z,6.57
2023-05-15T07:47:24.818Z,8.10
2023-05-15T07:49:52.680Z,6.67
2023-05-15T07:52:20.789Z,7.03
2023-05-15T07:54:52.522Z,7.70
2023-05-15T07:57:20.639Z,6.60
2023-05-15T07:59:48.390Z,7.03
2023-05-15T08:02:16.230Z,6.10
2023-05-15T08:04:44.013Z,6.50
2023-05-15T08:07:11.863Z,7.87
2023-05-15T08:09:39.688Z,7.60
2023-05-15T08:12:20.819Z,7.90
2023-05-15T08:14:49.953Z,7.57
2023-05-15T08:17:17.915Z,7.73
2023-05-15T08:19:46.033Z,7.50
2023-05-15T08:22:14.115Z,6.93
2023-05-15T08:24:42.432Z,7.40
2023-05-15T08:27:10.636Z,7.57
2023-05-15T08:29:40.409Z,6.60
2023-05-15T08:32:09.956Z,7.57
2023-05-15T08:34:38.544Z,8.27
2023-05-15T08:37:07.272Z,8.47
2023-05-15T08:39:35.057Z,6.77
2023-05-15T08:42:09.739Z,7.70
2023-05-15T08:44:39.578Z,7.53
2023-05-15T08:47:07.963Z,6.80
2023-05-15T08:49:48.816Z,6.33
2023-05-15T08:52:17.225Z,6.50
2023-05-15T08:54:47.937Z,7.13
2023-05-15T08:57:16.315Z,6.93
2023-05-15T08:59:45.470Z,7.03
2023-05-15T09:02:13.268Z,6.60
2023-05-15T09:04:41.363Z,6.43
2023-05-15T09:07:10.615Z,6.47
2023-05-15T09:09:43.399Z,6.40
2023-05-15T09:12:12.204Z,6.33
2023-05-15T09:14:40.103Z,5.73
2023-05-15T09:17:11.214Z,6.23
2023-05-15T09:19:40.491Z,6.73
2023-05-15T09:22:18.163Z,6.90
2023-05-15T09:24:48.074Z,6.77
2023-05-15T09:27:16.004Z,6.87
2023-05-15T09:29:43.818Z,7.10
2023-05-15T09:32:14.701Z,6.80
2023-05-15T09:34:44.344Z,7.00
2023-05-15T09:37:14.257Z,10.30
2023-05-15T09:39:43.623Z,6.30
2023-05-15T09:42:12.889Z,6.80
2023-05-15T09:44:43.701Z,5.93
2023-05-15T09:47:14.746Z,6.87
2023-05-15T09:49:46.805Z,5.80
2023-05-15T09:52:16.989Z,6.17
2023-05-15T09:54:49.466Z,7.20
2023-05-15T09:57:23.130Z,6.27
2023-05-15T09:59:51.069Z,6.67
2023-05-15T10:02:31.940Z,7.50
2023-05-15T10:05:00.626Z,6.60
2023-05-15T10:07:29.734Z,8.00
2023-05-15T10:09:57.632Z,5.80
2023-05-15T10:12:26.690Z,5.97
2023-05-15T10:14:58.386Z,6.77
2023-05-15T10:17:29.047Z,5.70
2023-05-15T10:20:00.053Z,6.70
2023-05-15T10:22:31.488Z,6.63
2023-05-15T10:25:03.606Z,6.17
2023-05-15T10:27:31.875Z,5.50
2023-05-15T10:30:01.150Z,4.63
2023-05-15T10:32:30.683Z,5.23
2023-05-15T10:34:59.258Z,6.33
2023-05-15T10:37:28.764Z,6.10
2023-05-15T10:39:58.397Z,5.50
2023-05-15T10:42:27.868Z,5.30
2023-05-15T10:45:00.039Z,5.80
2023-05-15T10:47:28.163Z,6.27
2023-05-15T10:49:57.732Z,5.97
2023-05-15T10:52:26.322Z,5.90
2023-05-15T10:54:54.424Z,6.00
2023-05-15T10:57:22.549Z,5.60
2023-05-15T10:59:50.885Z,6.33
2023-05-15T11:02:23.528Z,6.37
2023-05-15T11:04:57.804Z,5.60
2023-05-15T11:07:25.923Z,5.43
2023-05-15T11:09:54.068Z,5.53
2023-05-15T11:12:22.362Z,5.43
2023-05-15T11:15:22.013Z,5.33
2023-05-15T11:18:06.232Z,5.33
2023-05-15T11:20:41.719Z,5.30
2023-05-15T11:23:10.252Z,5.10
2023-05-15T11:25:38.182Z,5.40
2023-05-15T11:28:07.438Z,5.60
2023-05-15T11:30:40.002Z,5.30
2023-05-15T11:33:11.297Z,6.00
2023-05-15T11:35:43.187Z,5.27
2023-05-15T11:38:16.214Z,5.40
2023-05-15T11:40:48.497Z,5.80
2023-05-15T11:43:21.257Z,5.50
2023-05-15T11:45:52.682Z,6.17
2023-05-15T11:48:21.734Z,5.20
2023-05-15T11:50:53.610Z,5.40
2023-05-15T11:53:23.117Z,5.67
2023-05-15T11:55:54.173Z,5.40
2023-05-15T11:58:24.799Z,5.70
2023-05-15T12:00:54.884Z,6.07
2023-05-15T12:03:25.098Z,5.23
2023-05-15T12:05:59.698Z,4.83
2023-05-15T12:08:31.841Z,5.77
2023-05-15T12:11:00.516Z,5.40
2023-05-15T12:13:28.735Z,4.80
2023-05-15T12:15:57.159Z,4.90
2023-05-15T12:18:25.354Z,5.27
2023-05-15T12:20:55.367Z,4.47
2023-05-15T12:23:26.800Z,4.97
2023-05-15T12:26:00.412Z,4.77
2023-05-15T12:28:28.853Z,5.17
2023-05-15T12:30:56.751Z,4.37
2023-05-15T12:33:25.746Z,4.87
2023-05-15T12:36:01.229Z,4.20
2023-05-15T12:38:30.349Z,5.00
2023-05-15T12:40:58.203Z,4.70
2023-05-15T12:43:26.723Z,5.17
2023-05-15T12:45:54.917Z,4.70
2023-05-15T12:48:24.210Z,6.07
2023-05-15T12:50:52.060Z,5.00
2023-05-15T12:53:22.782Z,4.47
2023-05-15T12:55:52.316Z,4.00
2023-05-15T12:58:20.972Z,4.70
2023-05-15T13:00:50.639Z,5.80
2023-05-15T13:03:22.241Z,4.10
2023-05-15T13:05:50.169Z,4.30
2023-05-15T13:08:19.318Z,4.60
2023-05-15T13:10:56.448Z,4.00
2023-05-15T13:13:25.303Z,4.00
2023-05-15T13:15:55.028Z,3.87
2023-05-15T13:18:22.807Z,3.50
2023-05-15T13:20:51.877Z,3.30
2023-05-15T13:23:21.303Z,3.40
2023-05-15T13:25:50.427Z,3.30
2023-05-15T13:28:18.149Z,3.70
2023-05-15T13:30:45.985Z,3.97
2023-05-15T13:33:14.183Z,3.28
2023-05-15T13:35:43.929Z,3.33
2023-05-15T13:38:12.645Z,3.83
2023-05-15T13:40:40.561Z,4.43
2023-05-15T13:43:09.665Z,5.17
2023-05-15T13:45:37.673Z,4.37
2023-05-15T13:48:05.976Z,5.00
2023-05-15T13:50:34.078Z,3.97
2023-05-15T13:53:04.529Z,3.97
2023-05-15T13:55:32.306Z,5.40
2023-05-15T13:58:00.146Z,4.37
2023-05-15T14:00:29.266Z,4.23
2023-05-15T14:02:57.029Z,5.63
2023-05-15T14:05:24.808Z,4.87
2023-05-15T14:07:52.605Z,4.57
2023-05-15T14:10:20.390Z,5.70
2023-05-15T14:12:49.301Z,5.13
2023-05-15T14:15:17.423Z,5.47
2023-05-15T14:17:48.633Z,4.70
2023-05-15T14:20:16.378Z,4.43
2023-05-15T14:22:44.102Z,5.23
2023-05-15T14:25:12.291Z,4.93
2023-05-15T14:27:40.073Z,5.10
2023-05-15T14:30:09.038Z,5.67
2023-05-15T14:32:36.910Z,6.10
2023-05-15T14:35:06.476Z,5.60
2023-05-15T14:37:34.212Z,5.10
2023-05-15T14:40:01.943Z,4.40
2023-05-15T14:42:29.673Z,4.80
2023-05-15T14:44:57.415Z,4.60
2023-05-15T14:47:28.111Z,4.70
2023-05-15T14:49:55.931Z,4.53
2023-05-15T14:52:24.992Z,4.57
2023-05-15T14:55:04.751Z,4.45
2023-05-15T14:57:36.133Z,4.60
2023-05-15T15:00:05.838Z,5.40
2023-05-15T15:02:33.776Z,4.57
2023-05-15T15:05:01.615Z,5.40
2023-05-15T15:07:31.139Z,6.00
2023-05-15T15:09:59.878Z,5.70
2023-05-15T15:12:27.737Z,6.13
2023-05-15T15:14:55.491Z,6.10
2023-05-15T15:17:23.405Z,6.50
2023-05-15T15:19:51.183Z,5.63
2023-05-15T15:22:18.908Z,5.70
2023-05-15T15:24:47.984Z,6.70
2023-05-15T15:27:15.732Z,6.40
2023-05-15T15:29:43.452Z,5.93
2023-05-15T15:32:11.192Z,5.57
2023-05-15T15:34:39.106Z,5.97
2023-05-15T15:37:06.820Z,5.23
2023-05-15T15:39:34.586Z,5.40
2023-05-15T15:42:05.171Z,5.97
2023-05-15T15:44:34.986Z,5.93
2023-05-15T15:47:02.847Z,5.43
2023-05-15T15:49:31.570Z,5.90
2023-05-15T15:51:59.338Z,6.20
2023-05-15T15:54:27.095Z,5.80
2023-05-15T15:56:54.991Z,6.23
2023-05-15T15:59:24.046Z,6.40
2023-05-15T16:01:52.166Z,5.90
2023-05-15T16:04:19.946Z,5.80
2023-05-15T16:06:47.704Z,5.80
2023-05-15T16:09:15.670Z,8.63
2023-05-15T16:11:43.425Z,9.80
2023-05-15T16:14:11.162Z,11.00
2023-05-15T16:16:40.572Z,12.27
2023-05-15T16:19:08.418Z,10.40
2023-05-15T16:21:36.825Z,11.03
2023-05-15T16:24:04.833Z,11.93
2023-05-15T16:26:32.972Z,9.47
2023-05-15T16:29:00.688Z,11.30
2023-05-15T16:31:28.520Z,13.00
2023-05-15T16:34:00.306Z,11.53
2023-05-15T16:36:29.276Z,11.57
2023-05-15T16:38:57.196Z,12.40
2023-05-15T16:41:26.278Z,11.40
2023-05-15T16:43:54.024Z,12.03
2023-05-15T16:46:21.784Z,10.67
2023-05-15T16:48:49.558Z,10.90
2023-05-15T16:51:18.646Z,11.00
2023-05-15T16:53:47.104Z,13.43
2023-05-15T16:56:14.880Z,11.30
2023-05-15T16:58:43.376Z,10.83
2023-05-15T17:01:11.140Z,11.83
2023-05-15T17:03:38.924Z,11.70
2023-05-15T17:06:07.404Z,11.20
2023-05-15T17:08:36.486Z,11.87
2023-05-15T17:11:04.230Z,11.30
2023-05-15T17:13:32.268Z,11.00
2023-05-15T17:16:00.015Z,10.87
2023-05-15T17:18:27.850Z,11.87
2023-05-15T17:20:55.546Z,10.80
2023-05-15T17:23:23.277Z,11.70
2023-05-15T17:25:52.546Z,10.83
2023-05-15T17:28:20.336Z,10.50
2023-05-15T17:30:48.045Z,10.40
2023-05-15T17:33:15.913Z,10.10
2023-05-15T17:35:43.763Z,9.57
2023-05-15T17:38:11.585Z,10.43
2023-05-15T17:40:39.350Z,10.20
2023-05-15T17:43:09.747Z,10.20
2023-05-15T17:45:37.555Z,9.87
2023-05-15T17:48:05.952Z,11.10
2023-05-15T17:50:37.846Z,10.93
2023-05-15T17:53:06.510Z,9.23
2023-05-15T17:55:34.337Z,9.80
2023-05-15T17:58:02.052Z,9.13
2023-05-15T18:00:31.090Z,8.53
2023-05-15T18:03:00.717Z,9.73
2023-05-15T18:05:28.932Z,10.03
2023-05-15T18:07:58.074Z,9.70
2023-05-15T18:10:26.369Z,10.00
2023-05-15T18:12:54.081Z,9.70
2023-05-15T18:15:21.807Z,9.00
2023-05-15T18:17:50.897Z,10.40
2023-05-15T18:20:18.680Z,9.10
2023-05-15T18:22:46.408Z,8.67
2023-05-15T18:25:14.105Z,8.50
2023-05-15T18:27:41.978Z,9.57
2023-05-15T18:30:11.750Z,9.30
2023-05-15T18:32:39.604Z,9.10
2023-05-15T18:35:09.672Z,8.00
2023-05-15T18:37:37.510Z,7.30
2023-05-15T18:40:06.007Z,8.13
2023-05-15T18:42:33.804Z,8.60
2023-05-15T18:45:02.098Z,8.33
2023-05-15T18:47:29.898Z,7.67
2023-05-15T18:49:57.896Z,8.27
2023-05-15T18:52:27.356Z,8.77
2023-05-15T18:54:55.199Z,8.03
2023-05-15T18:57:22.906Z,8.07
2023-05-15T18:59:50.620Z,8.73
2023-05-15T19:02:18.346Z,8.52
2023-05-15T19:04:46.072Z,9.00
2023-05-15T19:07:13.800Z,7.60
2023-05-15T19:09:43.143Z,7.27
2023-05-15T19:12:10.884Z,8.30
2023-05-15T19:14:38.605Z,7.43
2023-05-15T19:17:06.886Z,8.17
2023-05-15T19:19:34.662Z,8.83
2023-05-15T19:22:02.360Z,7.50
2023-05-15T19:24:32.715Z,8.87
2023-05-15T19:27:02.521Z,9.23
2023-05-15T19:29:30.469Z,9.70
2023-05-15T19:31:59.320Z,7.50
2023-05-15T19:34:27.204Z,8.07
2023-05-15T19:36:55.110Z,7.70
2023-05-15T19:39:23.026Z,6.80
2023-05-15T19:41:51.092Z,7.50
2023-05-15T19:44:20.186Z,8.80
2023-05-15T19:46:48.159Z,6.90
2023-05-15T19:49:15.873Z,7.43
2023-05-15T19:51:43.569Z,6.90
2023-05-15T19:54:11.481Z,6.87
2023-05-15T19:56:39.236Z,6.30
2023-05-15T19:59:07.012Z,7.63
2023-05-15T20:01:36.067Z,8.80
2023-05-15T20:04:04.068Z,7.60
2023-05-15T20:06:31.890Z,6.90
2023-05-15T20:08:59.643Z,7.00
2023-05-15T20:11:27.565Z,8.13
2023-05-15T20:13:55.292Z,7.80
2023-05-15T20:16:23.055Z,7.20
2023-05-15T20:18:54.573Z,6.60
2023-05-15T20:21:22.360Z,7.30
2023-05-15T20:23:51.047Z,6.90
2023-05-15T20:26:19.825Z,7.80
2023-05-15T20:28:47.536Z,7.40
2023-05-15T20:31:15.583Z,7.60
2023-05-15T20:33:45.078Z,8.13
2023-05-15T20:36:15.215Z,7.40
2023-05-15T20:38:44.882Z,7.80
2023-05-15T20:41:12.647Z,7.87
2023-05-15T20:43:40.350Z,7.10
2023-05-15T20:46:09.687Z,7.53
2023-05-15T20:48:38.699Z,6.50
2023-05-15T20:51:06.396Z,6.40
2023-05-15T20:53:35.475Z,6.40
2023-05-15T20:56:03.237Z,7.07
2023-05-15T20:58:31.233Z,7.13
2023-05-15T21:01:00.769Z,6.93
2023-05-15T21:03:29.806Z,6.80
2023-05-15T21:05:57.823Z,6.90
2023-05-15T21:08:27.743Z,6.70
2023-05-15T21:10:56.848Z,6.43
2023-05-15T21:13:24.579Z,6.10
2023-05-15T21:15:53.377Z,6.60
2023-05-15T21:18:21.175Z,6.80
2023-05-15T21:20:48.910Z,6.17
2023-05-15T21:23:16.631Z,6.73
2023-05-15T21:25:44.690Z,6.40
2023-05-15T21:28:13.784Z,5.97
2023-05-15T21:30:41.476Z,5.60
2023-05-15T21:33:09.362Z,5.87
2023-05-15T21:35:38.015Z,6.10
2023-05-15T21:38:06.068Z,5.67
2023-05-15T21:40:34.424Z,5.40
2023-05-15T21:43:02.122Z,5.50
2023-05-15T21:45:31.223Z,5.30
2023-05-15T21:47:58.933Z,4.90
2023-05-15T21:50:27.182Z,5.60
2023-05-15T21:52:55.061Z,5.37
2023-05-15T21:55:22.762Z,6.10
2023-05-15T21:57:50.717Z,6.00
2023-05-15T22:00:18.942Z,6.97
2023-05-15T22:02:48.067Z,6.20
2023-05-15T22:05:16.293Z,7.87
2023-05-15T22:07:44.543Z,6.60
2023-05-15T22:10:16.217Z,8.47
2023-05-15T22:12:44.125Z,8.40
2023-05-15T22:15:14.354Z,7.20
2023-05-15T22:17:42.262Z,8.10
2023-05-15T22:20:13.210Z,9.20
2023-05-15T22:22:43.026Z,8.70
2023-05-15T22:25:11.027Z,9.67
2023-05-15T22:27:38.864Z,9.57
2023-05-15T22:30:08.603Z,11.50
2023-05-15T22:32:36.380Z,9.93
2023-05-15T22:35:04.538Z,11.80
2023-05-15T22:37:33.680Z,11.23
2023-05-15T22:40:01.669Z,11.07
2023-05-15T22:42:29.456Z,10.67
2023-05-15T22:44:57.613Z,11.67
2023-05-15T22:47:26.013Z,12.00
2023-05-15T22:49:53.997Z,12.33
2023-05-15T22:52:21.898Z,12.85
2023-05-15T22:54:50.912Z,12.83
2023-05-15T22:57:18.711Z,12.60
2023-05-15T22:59:46.725Z,12.50
2023-05-15T23:02:14.461Z,11.80
2023-05-15T23:04:43.110Z,12.63
2023-05-15T23:07:10.827Z,14.70
2023-05-15T23:09:38.602Z,15.27
2023-05-15T23:12:08.374Z,14.73
2023-05-15T23:14:36.118Z,18.10
2023-05-15T23:17:04.504Z,17.43
2023-05-15T23:19:32.281Z,18.20
2023-05-15T23:22:00.031Z,17.67
2023-05-15T23:24:27.731Z,19.13
2023-05-15T23:26:55.435Z,19.73
2023-05-15T23:29:24.633Z,17.80
2023-05-15T23:31:52.456Z,19.07
2023-05-15T23:34:24.196Z,20.17
2023-05-15T23:36:51.939Z,19.33
2023-05-15T23:39:19.629Z,19.27
2023-05-15T23:41:47.316Z,20.50
2023-05-15T23:44:15.014Z,19.90
2023-05-15T23:46:44.169Z,20.50
2023-05-15T23:49:11.898Z,20.20
2023-05-15T23:51:39.615Z,18.47
2023-05-15T23:54:07.422Z,19.70
2023-05-15T23:56:35.120Z,17.50
2023-05-15T23:59:02.800Z,17.97
